Latest Weather Observations for Scottsdale

IDT60801

Issued at 2:02 pm EDT Tuesday 28 February 2017 (issued every 30 minutes, with the page automatically refreshed every 10 minutes)

About weather observations | Map of weather stations | Latest weather observations for TAS | Other Formats
Station Details ID: 091219 Name: SCOTTSDALE (WEST MINSTONE ROAD) Lat: -41.17 Lon: 147.49 Height: 197.5 m
Data from the previous 72 hours. | See also: Recent months at Scottsdale
Date/Time
EDT
Temp
°C
App
Temp
°C
Dew
Point
°C
Rel
Hum
%
Delta-T
°C
Wind Press
QNH
hPa
Press
MSL
hPa
Rain since
9am
mm
Dir  Spd
km/h
Gust
km/h
Spd
kts
Gust
kts
28/02:00pm 25.2 22.5 13.0 46 7.1 N 19 30 10 16 1023.2 - 0.0
28/01:30pm 25.4 23.3 13.5 47 7.0 N 17 24 9 13 1023.5 - 0.0
28/01:00pm 25.9 24.2 13.5 46 7.3 NNE 15 26 8 14 1023.7 - 0.0
28/12:30pm 23.4 22.5 14.9 59 5.1 NE 13 19 7 10 1024.1 - 0.0
28/12:00pm 23.7 22.3 14.6 56 5.4 ENE 15 20 8 11 1024.4 1024.0 0.0
28/11:30am 22.5 22.1 15.3 63 4.3 NNE 11 17 6 9 1024.7 - 0.0
28/11:00am 21.8 20.2 15.1 65 4.0 NE 17 22 9 12 1024.8 - 0.0
28/10:30am 21.5 20.5 15.5 68 3.6 ENE 15 20 8 11 1024.8 - 0.0
28/10:00am 20.2 19.5 15.5 74 2.8 ENE 13 19 7 10 1025.0 - 0.0
28/09:30am 19.8 19.6 15.6 77 2.5 E 11 15 6 8 1025.0 - 0.0
28/09:00am 19.8 19.5 15.4 76 2.6 E 11 15 6 8 1025.0 1024.6 0.0
28/08:30am 18.5 18.1 15.1 80 2.0 ESE 11 15 6 8 1025.0 - 0.0
28/08:00am 16.7 15.6 14.4 86 1.3 SE 13 15 7 8 1025.1 - 0.0
28/07:30am 15.7 14.9 13.9 89 1.0 SE 11 13 6 7 1025.0 - 0.0
28/07:00am 14.3 13.2 13.2 93 0.6 SE 11 13 6 7 1024.8 - 0.0
28/06:30am 14.2 13.0 12.7 91 0.8 ESE 11 13 6 7 1024.7 - 0.0
28/06:00am 14.8 13.3 13.2 90 0.9 SE 13 15 7 8 1024.5 1024.1 0.0
28/05:30am 15.1 14.1 13.3 89 1.0 ESE 11 11 6 6 1024.5 - 0.0
28/05:00am 15.1 14.1 13.3 89 1.0 ESE 11 11 6 6 1024.5 - 0.0
28/04:30am 15.2 13.6 12.9 86 1.3 SE 13 15 7 8 1024.7 - 0.0
28/04:00am 15.3 14.1 12.8 85 1.4 SE 11 13 6 7 1025.0 - 0.0
28/03:30am 14.4 13.0 12.2 87 1.2 SE 11 13 6 7 1025.2 - 0.0
28/03:00am 15.0 13.6 12.3 84 1.5 SE 11 13 6 7 1025.4 1025.0 0.0
28/02:30am 15.3 14.5 12.8 85 1.4 SE 9 13 5 7 1025.6 - 0.0
28/02:00am 15.2 13.6 12.7 85 1.4 ESE 13 15 7 8 1025.7 - 0.0
28/01:30am 14.8 13.4 12.2 84 1.4 E 11 15 6 8 1026.0 - 0.0
28/01:00am 15.7 14.4 12.6 82 1.7 E 11 13 6 7 1026.0 - 0.0
28/12:30am 15.7 14.0 12.4 81 1.8 E 13 17 7 9 1026.2 - 0.0
28/12:00am 15.3 14.4 12.6 84 1.5 E 9 13 5 7 1026.3 1026.0 0.0
 
Date/Time
EDT
Temp
°C
App
Temp
°C
Dew
Point
°C
Rel
Hum
%
Delta-T
°C
Wind Press
QNH
hPa
Press
MSL
hPa
Rain since
9am
mm
Dir  Spd
km/h
Gust
km/h
Spd
kts
Gust
kts
27/11:30pm 15.1 13.8 12.6 85 1.4 E 11 15 6 8 1026.5 - 0.0
27/11:00pm 14.8 13.0 12.2 84 1.4 E 13 17 7 9 1026.5 - 0.0
27/10:30pm 15.1 12.9 12.2 83 1.6 E 15 17 8 9 1026.5 - 0.0
27/10:00pm 14.5 13.0 11.9 84 1.4 E 11 15 6 8 1026.7 - 0.0
27/09:30pm 15.1 12.8 11.6 79 1.9 E 15 19 8 10 1026.6 - 0.0
27/09:00pm 15.1 13.0 11.0 76 2.2 E 13 15 7 8 1026.5 1026.2 0.0
27/08:30pm 15.2 13.6 11.5 78 2.0 E 11 15 6 8 1026.3 - 0.0
27/08:00pm 16.8 14.8 11.5 71 2.9 NE 13 19 7 10 1026.0 - 0.0
27/07:30pm 18.5 15.4 11.6 64 3.8 NNE 19 24 10 13 1025.7 - 0.0
27/07:00pm 19.6 16.9 11.7 60 4.4 NNE 17 26 9 14 1025.4 - 0.0
27/06:30pm 20.5 17.1 11.3 55 5.1 NNE 20 26 11 14 1025.1 - 0.0
27/06:00pm 21.0 17.7 11.5 54 5.3 NNE 20 32 11 17 1025.0 1024.6 0.0
27/05:30pm 22.0 18.7 11.5 51 5.9 NNE 20 26 11 14 1025.0 - 0.0
27/05:00pm 22.1 18.0 11.6 51 5.9 NNE 24 30 13 16 1025.1 - 0.0
27/04:30pm 20.5 17.3 11.9 57 4.8 NE 20 26 11 14 1025.5 - 0.0
27/04:00pm 22.2 18.9 11.7 51 5.9 NNE 20 30 11 16 1025.6 - 0.0
27/03:30pm 23.6 20.2 12.4 49 6.4 NNE 22 33 12 18 1025.7 - 0.0
27/03:00pm 21.4 17.8 12.0 55 5.3 NE 22 32 12 17 1025.8 1025.4 0.0
27/02:30pm 22.0 19.2 12.5 54 5.4 NE 19 28 10 15 1026.2 - 0.0
27/02:00pm 21.3 18.3 12.1 55 5.2 ENE 19 30 10 16 1026.3 - 0.0
27/01:30pm 21.1 17.9 11.8 55 5.2 ENE 20 26 11 14 1026.4 - 0.0
27/01:00pm 21.2 18.7 10.9 51 5.7 NNE 15 19 8 10 1026.6 - 0.0
27/12:30pm 20.7 17.4 10.9 53 5.4 NE 19 26 10 14 1026.9 - 0.0
27/12:00pm 20.4 18.5 11.8 57 4.8 ENE 13 19 7 10 1027.2 1026.9 0.0
27/11:30am 20.2 17.8 11.5 57 4.8 ENE 15 20 8 11 1027.4 - 0.0
27/11:00am 19.9 17.1 11.4 58 4.7 NE 17 26 9 14 1027.4 - 0.0
27/10:30am 19.5 17.0 11.1 58 4.6 E 15 20 8 11 1027.6 - 0.0
27/10:00am 18.0 15.4 10.6 62 4.0 E 15 26 8 14 1027.6 - 0.0
27/09:30am 17.6 14.4 10.1 61 4.0 E 17 24 9 13 1027.6 - 0.0
27/09:00am 17.4 15.1 10.5 64 3.7 E 13 19 7 10 1027.4 1027.1 0.0
27/08:30am 16.2 14.0 10.8 70 2.9 E 13 17 7 9 1027.3 - 0.0
27/08:00am 14.8 13.0 10.8 77 2.1 SE 11 13 6 7 1027.2 - 0.0
27/07:30am 13.6 11.3 10.5 81 1.6 SE 13 13 7 7 1027.0 - 0.0
27/07:00am 12.8 10.4 9.9 82 1.5 SE 13 17 7 9 1026.8 - 0.0
27/06:30am 12.1 9.7 10.0 87 1.1 SE 13 15 7 8 1026.5 - 0.0
27/06:00am 11.1 8.4 9.1 87 1.0 SE 13 15 7 8 1026.3 1026.1 0.0
27/05:30am 10.9 8.3 9.3 90 0.8 SE 13 15 7 8 1026.2 - 0.0
27/05:00am 10.6 8.3 9.0 90 0.8 SE 11 13 6 7 1026.2 - 0.0
27/04:30am 10.5 7.8 9.1 91 0.7 SE 13 15 7 8 1026.2 - 0.0
27/04:00am 10.5 8.2 8.9 90 0.8 SE 11 13 6 7 1026.4 - 0.0
27/03:30am 11.1 8.5 9.3 89 0.9 SE 13 15 7 8 1026.4 - 0.0
27/03:00am 11.1 8.8 9.1 87 1.0 SE 11 13 6 7 1026.5 1026.3 0.0
27/02:30am 10.8 8.1 8.8 87 1.0 SSE 13 15 7 8 1026.6 - 0.0
27/02:00am 10.4 7.7 8.8 90 0.8 SE 13 15 7 8 1026.6 - 0.0
27/01:30am 10.9 7.8 8.9 87 1.0 SE 15 17 8 9 1026.8 - 0.0
27/01:00am 10.7 8.0 8.9 89 0.9 SE 13 15 7 8 1027.0 - 0.0
27/12:30am 10.9 8.2 8.9 87 1.0 SE 13 15 7 8 1027.1 - 0.0
27/12:00am 11.1 8.4 9.1 87 1.0 SE 13 13 7 7 1027.2 1026.9 0.0
 
Date/Time
EDT
Temp
°C
App
Temp
°C
Dew
Point
°C
Rel
Hum
%
Delta-T
°C
Wind Press
QNH
hPa
Press
MSL
hPa
Rain since
9am
mm
Dir  Spd
km/h
Gust
km/h
Spd
kts
Gust
kts
26/11:30pm 11.5 9.2 9.1 85 1.2 SE 11 13 6 7 1027.3 - 0.0
26/11:00pm 11.4 9.1 9.0 85 1.2 SSE 11 13 6 7 1027.4 - 0.0
26/10:30pm 12.0 9.3 9.0 82 1.5 ESE 13 15 7 8 1027.3 - 0.0
26/10:00pm 12.4 10.0 8.6 77 1.9 E 11 13 6 7 1027.2 - 0.0
26/09:30pm 13.1 10.4 8.9 75 2.1 ENE 13 17 7 9 1026.9 - 0.0
26/09:00pm 14.5 11.0 8.6 67 3.0 ENE 17 22 9 12 1026.6 1026.3 0.0
26/08:30pm 14.3 11.9 8.8 69 2.8 NE 11 15 6 8 1026.3 - 0.0
26/08:00pm 14.5 12.5 8.6 67 3.0 N 9 13 5 7 1026.0 - 0.0
26/07:30pm 16.6 14.1 8.4 58 4.2 N 11 15 6 8 1025.9 - 0.0
26/07:00pm 17.5 13.6 7.2 51 5.2 N 17 20 9 11 1025.5 - 0.0
26/06:30pm 18.6 14.7 7.1 47 5.8 N 17 24 9 13 1025.3 - 0.0
26/06:00pm 19.2 15.8 7.7 47 5.9 NW 15 22 8 12 1025.1 1024.7 0.0
26/05:30pm 19.7 16.7 7.9 46 6.1 NNW 13 19 7 10 1025.1 - 0.0
26/05:00pm 19.9 17.3 7.7 45 6.3 NW 11 20 6 11 1025.1 - 0.0
26/04:30pm 20.3 16.6 8.0 45 6.4 NNW 17 24 9 13 1025.2 - 0.0
26/04:00pm 20.5 17.1 7.8 44 6.6 NNW 15 24 8 13 1025.4 - 0.0
26/03:30pm 20.9 17.2 7.8 42 6.8 NNW 17 30 9 16 1025.6 - 0.0
26/03:00pm 20.2 16.2 8.4 46 6.2 NNE 19 28 10 15 1025.7 1025.3 0.0
26/02:30pm 20.5 17.4 9.0 47 6.1 NNW 15 26 8 14 1025.9 - 0.0
26/02:00pm 18.5 17.0 9.0 54 5.0 NNE 7 11 4 6 1026.2 - 0.0
26/01:30pm 19.5 17.5 8.6 49 5.7 NW 9 17 5 9 1026.2 - 0.0
26/01:00pm 18.7 15.8 8.0 49 5.5 NNE 13 24 7 13 1026.4 - 0.0
26/12:30pm 19.6 16.9 7.5 45 6.2 N 11 20 6 11 1026.7 - 0.0
26/12:00pm 17.7 15.9 7.9 52 5.0 W 7 11 4 6 1026.9 1026.6 0.0
26/11:30am 17.5 15.3 7.9 53 4.9 NNE 9 15 5 8 1027.2 - 0.0
26/11:00am 18.6 16.3 7.4 48 5.7 E 9 15 5 8 1027.3 - 0.0
26/10:30am 17.6 15.8 7.8 52 5.0 ENE 7 13 4 7 1027.3 - 0.0
26/10:00am 15.6 13.7 6.9 56 4.3 ENE 6 13 3 7 1027.2 - 0.0
26/09:30am 16.1 14.5 7.8 58 4.2 E 6 11 3 6 1027.2 - 0.0
26/09:00am 15.4 13.7 8.5 63 3.5 ESE 7 11 4 6 1027.1 1026.7 0.0
26/08:30am 13.9 11.8 8.3 69 2.8 S 9 11 5 6 1027.1 - 0.0
26/08:00am 13.2 11.7 9.1 76 2.1 SE 7 9 4 5 1026.8 - 0.0
26/07:30am 11.2 8.8 8.8 85 1.2 SE 11 13 6 7 1026.6 - 0.0
26/07:00am 10.3 7.8 8.3 87 1.0 S 11 13 6 7 1026.5 - 0.0
26/06:30am 10.2 8.1 8.1 87 1.0 SSE 9 11 5 6 1025.9 - 0.0
26/06:00am 11.3 9.3 8.7 84 1.3 SE 9 11 5 6 1025.7 1025.3 0.0
26/05:30am 12.3 10.7 8.7 79 1.8 S 7 9 4 5 1025.7 - 0.0
26/05:00am 12.3 10.3 8.7 79 1.8 S 9 9 5 5 1025.5 - 0.0
26/04:30am 12.0 10.5 9.0 82 1.5 SE 7 9 4 5 1025.2 - 0.0
26/04:00am 12.3 10.4 9.1 81 1.6 SSE 9 11 5 6 1025.7 - 0.0
26/03:30am 12.3 10.4 9.1 81 1.6 SSE 9 11 5 6 1025.9 - 0.0
26/03:00am 12.4 10.8 8.8 79 1.8 SSE 7 9 4 5 1026.1 1025.8 0.0
26/02:30am 12.3 10.4 8.9 80 1.7 SSE 9 11 5 6 1026.2 - 0.0
26/02:00am 12.2 10.7 9.0 81 1.6 SSE 7 9 4 5 1026.7 - 0.0
26/01:30am 12.3 10.8 9.3 82 1.5 SSE 7 9 4 5 1026.8 - 0.0
26/01:00am 12.2 10.7 9.2 82 1.5 SSE 7 7 4 4 1027.0 - 0.0
26/12:30am 11.8 10.3 9.0 83 1.4 SE 7 9 4 5 1027.1 - 0.0
26/12:00am 11.6 10.2 9.4 86 1.1 SE 7 7 4 4 1027.2 1026.9 0.0
 
Date/Time
EDT
Temp
°C
App
Temp
°C
Dew
Point
°C
Rel
Hum
%
Delta-T
°C
Wind Press
QNH
hPa
Press
MSL
hPa
Rain since
9am
mm
Dir  Spd
km/h
Gust
km/h
Spd
kts
Gust
kts
25/11:30pm 11.1 9.7 8.7 85 1.2 ESE 6 7 3 4 1027.3 - 0.0
25/11:00pm 11.3 9.9 8.9 85 1.2 E 6 7 3 4 1027.3 - 0.0
25/10:30pm 10.3 8.6 8.3 87 1.0 ENE 7 9 4 5 1027.0 - 0.0
25/10:00pm 10.7 8.2 8.0 83 1.3 NE 11 13 6 7 1026.7 - 0.0
25/09:30pm 11.6 9.1 8.4 81 1.6 NE 11 15 6 8 1026.6 - 0.0
25/09:00pm 13.1 9.4 8.1 71 2.5 NE 17 20 9 11 1026.5 1026.2 0.0
25/08:30pm 14.4 11.2 6.8 60 3.7 NE 13 19 7 10 1026.1 - 0.0
25/08:00pm 14.6 10.2 6.6 58 3.9 ENE 19 24 10 13 1025.8 - 0.0
25/07:30pm 15.0 10.7 6.9 58 4.0 ENE 19 28 10 15 1025.4 - 0.0
25/07:00pm 15.7 11.7 6.8 55 4.4 E 17 20 9 11 1025.2 - 0.0
25/06:30pm 16.4 12.3 6.2 51 5.0 NNE 17 20 9 11 1025.0 - 0.0
25/06:00pm 17.3 13.6 9.3 59 4.2 NNW 19 28 10 15 1024.8 1024.4 0.0
25/05:30pm 18.7 15.8 9.5 55 4.9 NW 15 24 8 13 1024.7 - 0.0
25/05:00pm 18.9 15.1 9.0 52 5.2 NNW 19 24 10 13 1024.6 - 0.0
25/04:30pm 19.6 15.9 8.0 47 6.0 NW 17 28 9 15 1024.4 - 0.0
25/04:00pm 20.3 16.0 7.2 42 6.7 NW 19 30 10 16 1024.3 - 0.0
25/03:30pm 19.1 15.3 7.6 47 5.9 NW 17 24 9 13 1024.3 - 0.0
25/03:00pm 20.2 17.2 7.9 45 6.4 NW 13 24 7 13 1024.5 1024.1 0.0
25/02:30pm 20.7 17.5 7.0 41 7.0 W 13 22 7 12 1024.8 - 0.0

Other Formats:

Comma delimited format used in spreadsheet applications
http://www.bom.gov.au/fwo/IDT60801/IDT60801.94972.axf

JavaScript Object Notation format (JSON) in row-major order
http://www.bom.gov.au/fwo/IDT60801/IDT60801.94972.json